createdAt,value
2018-07-26T00:03:33.559Z,101201.00
2018-07-26T00:08:43.099Z,101201.91
2018-07-26T00:13:52.073Z,101211.91
2018-07-26T00:19:01.609Z,101208.23
2018-07-26T00:24:10.919Z,101209.92
2018-07-26T00:29:20.195Z,101211.23
2018-07-26T00:34:29.232Z,101206.20
2018-07-26T00:39:38.338Z,101209.47
2018-07-26T00:44:47.481Z,101207.41
2018-07-26T00:49:56.164Z,101204.65
2018-07-26T00:55:05.179Z,101207.13
2018-07-26T01:00:14.201Z,101204.33
2018-07-26T01:05:24.077Z,101209.70
2018-07-26T01:10:33.075Z,101215.41
2018-07-26T01:15:42.334Z,101221.24
2018-07-26T01:20:51.894Z,101226.52
2018-07-26T01:26:01.118Z,101223.02
2018-07-26T01:31:10.993Z,101216.47
2018-07-26T01:36:20.374Z,101215.52
2018-07-26T01:41:29.845Z,101225.16
2018-07-26T01:46:38.784Z,101224.55
2018-07-26T01:51:47.976Z,101225.77
2018-07-26T01:56:57.120Z,101225.26
2018-07-26T02:02:07.001Z,101224.85
2018-07-26T02:07:16.357Z,101227.47
2018-07-26T02:12:25.287Z,101230.98
2018-07-26T02:17:34.208Z,101225.34
2018-07-26T02:22:43.353Z,101236.25
2018-07-26T02:27:54.042Z,101233.36
2018-07-26T02:33:02.780Z,101232.55
2018-07-26T02:38:11.773Z,101235.26
2018-07-26T02:43:21.522Z,101236.54
2018-07-26T02:48:30.480Z,101238.73
2018-07-26T02:53:39.358Z,101247.41
2018-07-26T02:58:48.337Z,101255.75
2018-07-26T03:03:57.477Z,101257.56
2018-07-26T03:09:06.979Z,101260.73
2018-07-26T03:14:16.474Z,101260.77
2018-07-26T03:19:25.727Z,101256.11
2018-07-26T03:24:34.732Z,101257.36
2018-07-26T03:29:43.748Z,101257.48
2018-07-26T03:34:53.226Z,101254.43
2018-07-26T03:40:02.002Z,101252.67
2018-07-26T03:45:11.113Z,101259.14
2018-07-26T03:50:19.937Z,101259.89
2018-07-26T03:55:29.236Z,101259.22
2018-07-26T04:00:38.484Z,101262.36
2018-07-26T04:05:54.873Z,101268.60
2018-07-26T04:11:04.706Z,101269.47
2018-07-26T04:16:14.159Z,101273.51
2018-07-26T04:21:23.320Z,101274.53
2018-07-26T04:26:32.433Z,101277.19
2018-07-26T04:31:41.416Z,101279.70
2018-07-26T04:36:50.668Z,101276.01
2018-07-26T04:41:59.843Z,101263.14
2018-07-26T04:47:09.068Z,101273.59
2018-07-26T04:52:18.169Z,101281.35
2018-07-26T04:57:27.869Z,101287.75
2018-07-26T05:02:37.813Z,101295.61
2018-07-26T05:07:47.186Z,101294.80
2018-07-26T05:12:56.776Z,101295.93
2018-07-26T05:18:06.520Z,101298.80
2018-07-26T05:23:16.028Z,101302.13
2018-07-26T05:28:26.019Z,101302.70
2018-07-26T05:33:34.989Z,101303.52
2018-07-26T05:38:44.059Z,101299.55
2018-07-26T05:43:54.027Z,101299.83
2018-07-26T05:49:04.261Z,101303.53
2018-07-26T05:54:13.974Z,101315.95
2018-07-26T05:59:23.623Z,101312.28
2018-07-26T06:04:33.313Z,101310.65
2018-07-26T06:09:42.985Z,101311.08
2018-07-26T06:14:53.184Z,101307.45
2018-07-26T06:20:03.780Z,101319.38
2018-07-26T06:25:13.361Z,101311.65
2018-07-26T06:30:23.737Z,101316.02
2018-07-26T06:35:32.908Z,101314.38
2018-07-26T06:40:41.965Z,101315.30
2018-07-26T06:45:51.840Z,101319.79
2018-07-26T06:51:01.680Z,101314.54
2018-07-26T06:56:11.426Z,101312.60
2018-07-26T07:01:21.140Z,101313.64
2018-07-26T07:06:30.198Z,101319.94
2018-07-26T07:11:40.225Z,101321.58
2018-07-26T07:16:49.666Z,101324.63
2018-07-26T07:21:59.670Z,101330.61
2018-07-26T07:27:09.301Z,101330.81
2018-07-26T07:32:18.449Z,101327.19
2018-07-26T07:37:28.412Z,101336.20
2018-07-26T07:42:37.519Z,101336.92
2018-07-26T07:47:47.076Z,101340.30
2018-07-26T07:52:56.075Z,101339.59
2018-07-26T07:58:06.704Z,101329.00
2018-07-26T08:03:16.265Z,101332.61
2018-07-26T08:08:25.587Z,101345.80
2018-07-26T08:13:35.168Z,101345.44
2018-07-26T08:18:45.218Z,101345.75
2018-07-26T08:23:54.757Z,101337.45
2018-07-26T08:29:39.193Z,101340.78
2018-07-26T08:34:50.384Z,101347.12
2018-07-26T08:39:59.935Z,101342.11
2018-07-26T08:45:11.023Z,101344.72
2018-07-26T08:50:20.969Z,101339.91
2018-07-26T08:55:30.924Z,101340.12
2018-07-26T09:00:40.535Z,101342.67
2018-07-26T09:05:50.127Z,101351.86
2018-07-26T09:11:00.390Z,101354.47
2018-07-26T09:16:10.018Z,101347.80
2018-07-26T09:21:23.676Z,101349.00
2018-07-26T09:26:32.971Z,101347.11
2018-07-26T09:31:42.700Z,101344.06
2018-07-26T09:36:51.790Z,101340.44
2018-07-26T09:42:01.085Z,101336.03
2018-07-26T09:47:11.266Z,101333.94
2018-07-26T09:52:20.568Z,101340.09
2018-07-26T09:57:30.239Z,101332.58
2018-07-26T10:02:39.975Z,101318.48
2018-07-26T10:07:49.790Z,101324.67
2018-07-26T10:12:58.991Z,101315.13
2018-07-26T10:18:08.217Z,101311.42
2018-07-26T10:23:18.058Z,101313.73
2018-07-26T10:28:28.232Z,101306.98
2018-07-26T10:33:37.490Z,101299.58
2018-07-26T10:38:46.482Z,101301.13
2018-07-26T10:43:56.025Z,101306.25
2018-07-26T10:49:05.229Z,101309.44
2018-07-26T10:54:15.011Z,101300.23
2018-07-26T10:59:24.881Z,101300.47
2018-07-26T11:04:34.310Z,101297.86
2018-07-26T11:09:43.340Z,101289.91
2018-07-26T11:14:53.520Z,101289.91
2018-07-26T11:20:03.912Z,101289.30
2018-07-26T11:25:14.306Z,101282.05
2018-07-26T11:30:24.212Z,101274.66
2018-07-26T11:35:33.304Z,101268.01
2018-07-26T11:40:42.855Z,101270.89
2018-07-26T11:45:53.579Z,101271.02
2018-07-26T11:51:03.323Z,101251.41
2018-07-26T11:56:12.944Z,101256.67
2018-07-26T12:01:22.155Z,101254.17
2018-07-26T12:06:32.258Z,101248.83
2018-07-26T12:11:42.103Z,101237.05
2018-07-26T12:16:52.199Z,101230.47
2018-07-26T12:22:02.027Z,101221.32
2018-07-26T12:27:11.309Z,101224.08
2018-07-26T12:32:21.096Z,101203.83
2018-07-26T12:37:31.068Z,101206.19
2018-07-26T12:42:41.209Z,101212.17
2018-07-26T12:47:50.583Z,101199.17
2018-07-26T12:53:00.499Z,101193.84
2018-07-26T12:58:09.607Z,101189.59
2018-07-26T13:03:18.949Z,101200.23
2018-07-26T13:08:28.451Z,101189.09
2018-07-26T13:13:38.438Z,101180.46
2018-07-26T13:18:47.821Z,101180.73
2018-07-26T13:23:56.864Z,101181.46
2018-07-26T13:29:05.843Z,101177.33
2018-07-26T13:34:16.050Z,101173.75
2018-07-26T13:39:28.045Z,101171.17
2018-07-26T13:44:37.748Z,101182.41
2018-07-26T13:49:48.795Z,101172.29
2018-07-26T13:54:57.855Z,101160.56
2018-07-26T14:00:07.674Z,101168.16
2018-07-26T14:05:17.678Z,101159.20
2018-07-26T14:10:27.538Z,101150.52
2018-07-26T14:15:37.121Z,101152.70
2018-07-26T14:20:47.006Z,101158.97
2018-07-26T14:25:56.230Z,101156.08
2018-07-26T14:31:06.666Z,101153.66
2018-07-26T14:36:16.146Z,101150.83
2018-07-26T14:41:25.534Z,101144.94
2018-07-26T14:46:35.078Z,101142.67
2018-07-26T14:51:45.904Z,101136.62
2018-07-26T14:56:55.924Z,101139.98
2018-07-26T15:02:05.697Z,101135.66
2018-07-26T15:07:17.610Z,101131.14
2018-07-26T15:12:27.224Z,101134.66
2018-07-26T15:17:36.419Z,101132.98
2018-07-26T15:22:45.896Z,101128.20
2018-07-26T15:27:56.046Z,101129.78
2018-07-26T15:33:05.920Z,101123.67
2018-07-26T15:38:15.170Z,101124.28
2018-07-26T15:43:24.987Z,101121.34
2018-07-26T15:48:34.856Z,101120.17
2018-07-26T15:53:44.299Z,101116.56
2018-07-26T15:58:54.251Z,101119.55
2018-07-26T16:04:04.180Z,101115.42
2018-07-26T16:09:13.320Z,101113.00
2018-07-26T16:14:24.224Z,101114.84
2018-07-26T16:19:34.135Z,101106.81
2018-07-26T16:24:44.648Z,101110.18
2018-07-26T16:29:54.231Z,101108.48
2018-07-26T16:35:04.430Z,101099.82
2018-07-26T16:40:14.602Z,101104.69
2018-07-26T16:45:24.362Z,101105.40
2018-07-26T16:50:33.682Z,101105.43
2018-07-26T16:55:42.651Z,101106.18
2018-07-26T17:00:51.890Z,101104.03
2018-07-26T17:06:01.890Z,101103.62
2018-07-26T17:11:11.576Z,101101.86
2018-07-26T17:16:21.081Z,101106.71
2018-07-26T17:21:31.114Z,101110.72
2018-07-26T17:26:41.273Z,101109.42
2018-07-26T17:31:50.629Z,101109.17
2018-07-26T17:37:00.472Z,101108.60
2018-07-26T17:42:10.185Z,101109.73
2018-07-26T17:47:19.598Z,101117.73
2018-07-26T17:52:29.473Z,101122.80
2018-07-26T17:57:38.451Z,101125.81
2018-07-26T18:02:48.309Z,101128.73
2018-07-26T18:07:57.876Z,101132.19
2018-07-26T18:13:08.329Z,101131.09
2018-07-26T18:18:18.239Z,101135.17
2018-07-26T18:23:27.557Z,101136.67
2018-07-26T18:28:37.419Z,101145.02
2018-07-26T18:33:47.246Z,101142.34
2018-07-26T18:38:58.744Z,101143.53
2018-07-26T18:44:08.409Z,101145.19
2018-07-26T18:49:18.228Z,101155.29
2018-07-26T18:54:27.039Z,101165.94
2018-07-26T18:59:39.376Z,101172.59
2018-07-26T19:04:50.060Z,101174.30
2018-07-26T19:09:59.419Z,101176.19
2018-07-26T19:15:10.658Z,101187.75
2018-07-26T19:20:21.476Z,101191.86
2018-07-26T19:25:33.077Z,101200.05
2018-07-26T19:30:43.486Z,101204.09
2018-07-26T19:35:52.609Z,101212.58
2018-07-26T19:41:02.410Z,101206.98
2018-07-26T19:46:11.746Z,101214.77
2018-07-26T19:51:21.402Z,101222.16
2018-07-26T19:56:32.512Z,101233.28
2018-07-26T20:01:41.851Z,101222.44
2018-07-26T20:06:50.753Z,101220.56
2018-07-26T20:11:59.735Z,101216.58
2018-07-26T20:17:09.079Z,101228.89
2018-07-26T20:22:18.100Z,101234.05
2018-07-26T20:27:28.319Z,101241.38
2018-07-26T20:32:37.458Z,101237.44
2018-07-26T20:37:47.194Z,101243.16
2018-07-26T20:42:56.151Z,101237.89
2018-07-26T20:48:05.964Z,101238.21
2018-07-26T20:53:14.823Z,101241.76
2018-07-26T20:58:25.588Z,101238.61
2018-07-26T21:03:35.605Z,101248.00
2018-07-26T21:08:44.697Z,101250.20
2018-07-26T21:13:53.869Z,101252.55
2018-07-26T21:19:03.152Z,101254.28
2018-07-26T21:24:12.836Z,101261.17
2018-07-26T21:29:22.364Z,101263.13
2018-07-26T21:34:31.769Z,101261.73
2018-07-26T21:39:41.214Z,101251.13
2018-07-26T21:44:50.307Z,101252.23
2018-07-26T21:49:59.351Z,101257.17
2018-07-26T21:55:08.541Z,101258.66
2018-07-26T22:00:17.380Z,101262.08
2018-07-26T22:05:26.387Z,101257.91
2018-07-26T22:10:35.335Z,101260.14
2018-07-26T22:15:44.394Z,101260.02
2018-07-26T22:20:54.222Z,101266.05
2018-07-26T22:26:03.542Z,101280.65
2018-07-26T22:31:12.570Z,101281.43
2018-07-26T22:36:21.647Z,101277.85
2018-07-26T22:41:30.378Z,101273.43
2018-07-26T22:46:39.575Z,101273.87
2018-07-26T22:51:49.372Z,101275.75
2018-07-26T23:02:25.010Z,101273.34
2018-07-26T23:07:34.928Z,101276.69
2018-07-26T23:12:44.765Z,101276.75
2018-07-26T23:17:54.419Z,101285.00
2018-07-26T23:23:04.014Z,101275.22
2018-07-26T23:33:22.002Z,101272.19
2018-07-26T23:38:31.537Z,101269.23
2018-07-26T23:43:41.093Z,101253.78
2018-07-26T23:48:50.837Z,101256.98
2018-07-26T23:53:59.838Z,101252.04
2018-07-26T23:59:09.381Z,101253.40
